createdAt,value
2018-08-23T00:01:24.093Z,19.13
2018-08-23T00:03:53.088Z,16.80
2018-08-23T00:06:21.997Z,17.83
2018-08-23T00:08:51.584Z,17.37
2018-08-23T00:11:23.537Z,18.90
2018-08-23T00:13:52.505Z,18.93
2018-08-23T00:16:32.980Z,20.53
2018-08-23T00:19:02.727Z,21.30
2018-08-23T00:21:31.691Z,23.60
2018-08-23T00:24:06.199Z,21.40
2018-08-23T00:26:35.930Z,22.90
2018-08-23T00:29:09.457Z,21.80
2018-08-23T00:31:38.947Z,22.43
2018-08-23T00:34:08.227Z,24.10
2018-08-23T00:36:37.655Z,23.57
2018-08-23T00:39:07.975Z,23.63
2018-08-23T00:41:36.866Z,24.97
2018-08-23T00:44:05.770Z,23.43
2018-08-23T00:46:34.897Z,24.50
2018-08-23T00:49:03.790Z,23.20
2018-08-23T00:51:36.426Z,22.37
2018-08-23T00:54:05.434Z,23.10
2018-08-23T00:56:34.317Z,23.43
2018-08-23T00:59:03.935Z,23.17
2018-08-23T01:01:33.507Z,22.70
2018-08-23T01:04:02.438Z,22.43
2018-08-23T01:06:39.339Z,23.30
2018-08-23T01:09:09.727Z,22.23
2018-08-23T01:11:38.643Z,23.23
2018-08-23T01:14:07.790Z,24.17
2018-08-23T01:16:36.790Z,24.27
2018-08-23T01:19:10.940Z,23.13
2018-08-23T01:21:49.788Z,23.20
2018-08-23T01:24:18.712Z,23.27
2018-08-23T01:26:47.598Z,21.30
2018-08-23T01:29:27.096Z,23.50
2018-08-23T01:32:02.865Z,20.23
2018-08-23T01:34:31.742Z,21.87
2018-08-23T01:37:00.652Z,21.13
2018-08-23T01:39:29.538Z,21.20
2018-08-23T01:41:58.472Z,18.87
2018-08-23T01:44:31.548Z,19.03
2018-08-23T01:47:01.822Z,18.33
2018-08-23T01:49:30.726Z,19.27
2018-08-23T01:51:59.626Z,18.53
2018-08-23T01:54:28.544Z,19.50
2018-08-23T01:56:57.509Z,19.07
2018-08-23T01:59:26.503Z,19.70
2018-08-23T02:01:55.482Z,18.50
2018-08-23T02:04:24.458Z,19.73
2018-08-23T02:06:53.360Z,20.87
2018-08-23T02:09:22.220Z,19.97
2018-08-23T02:11:51.214Z,19.00
2018-08-23T02:14:20.154Z,20.60
2018-08-23T02:16:51.944Z,17.57
2018-08-23T02:19:21.887Z,19.50
2018-08-23T02:21:50.778Z,20.73
2018-08-23T02:24:23.852Z,21.13
2018-08-23T02:26:52.882Z,20.13
2018-08-23T02:29:33.126Z,21.03
2018-08-23T02:32:02.077Z,20.80
2018-08-23T02:34:35.159Z,21.07
2018-08-23T02:37:04.168Z,19.87
2018-08-23T02:39:33.189Z,19.13
2018-08-23T02:42:02.076Z,19.93
2018-08-23T02:44:31.026Z,20.07
2018-08-23T02:47:01.970Z,21.47
2018-08-23T02:49:31.506Z,20.63
2018-08-23T02:52:00.833Z,20.77
2018-08-23T02:54:29.814Z,20.40
2018-08-23T02:56:59.543Z,19.97
2018-08-23T02:59:29.117Z,21.80
2018-08-23T03:01:57.995Z,20.83
2018-08-23T03:04:27.903Z,21.00
2018-08-23T03:06:59.045Z,22.10
2018-08-23T03:09:29.649Z,21.37
2018-08-23T03:12:01.759Z,22.50
2018-08-23T03:14:31.187Z,24.67
2018-08-23T03:17:21.449Z,24.37
2018-08-23T03:20:10.333Z,24.53
2018-08-23T03:22:39.847Z,26.43
2018-08-23T03:25:10.370Z,24.40
2018-08-23T03:27:39.275Z,23.60
2018-08-23T03:30:10.521Z,26.73
2018-08-23T03:32:39.489Z,25.80
2018-08-23T03:35:08.358Z,26.70
2018-08-23T03:37:37.279Z,26.53
2018-08-23T03:40:06.845Z,28.10
2018-08-23T03:42:35.797Z,27.63
2018-08-23T03:45:04.807Z,28.47
2018-08-23T03:47:39.400Z,29.73
2018-08-23T03:50:09.504Z,30.33
2018-08-23T03:52:39.572Z,29.07
2018-08-23T03:55:09.553Z,30.17
2018-08-23T03:57:43.863Z,29.77
2018-08-23T04:00:12.801Z,29.63
2018-08-23T04:02:41.704Z,31.80
2018-08-23T04:05:16.015Z,32.10
2018-08-23T04:07:44.944Z,30.87
2018-08-23T04:10:13.864Z,30.33
2018-08-23T04:12:43.754Z,29.93
2018-08-23T04:15:21.524Z,28.33
2018-08-23T04:17:50.747Z,30.83
2018-08-23T04:20:19.659Z,29.80
2018-08-23T04:22:48.612Z,29.53
2018-08-23T04:25:17.531Z,30.73
2018-08-23T04:27:46.400Z,30.20
2018-08-23T04:33:02.272Z,32.53
2018-08-23T04:35:31.176Z,31.60
2018-08-23T04:38:00.154Z,31.73
2018-08-23T04:40:29.149Z,30.50
2018-08-23T04:42:58.151Z,30.40
2018-08-23T04:45:28.085Z,32.07
2018-08-23T04:48:02.202Z,29.53
2018-08-23T04:50:31.155Z,29.60
2018-08-23T04:53:00.130Z,28.00
2018-08-23T04:55:29.171Z,29.90
2018-08-23T04:57:59.122Z,30.13
2018-08-23T05:00:28.753Z,29.13
2018-08-23T05:02:57.756Z,30.40
2018-08-23T05:05:26.778Z,29.10
2018-08-23T05:07:55.692Z,29.77
2018-08-23T05:10:24.627Z,29.33
2018-08-23T05:12:53.514Z,31.53
2018-08-23T05:15:22.565Z,33.53
2018-08-23T05:17:51.455Z,30.80
2018-08-23T05:20:20.494Z,32.43
2018-08-23T05:22:54.684Z,32.23
2018-08-23T05:25:24.235Z,32.00
2018-08-23T05:28:07.069Z,31.77
2018-08-23T05:30:36.017Z,30.97
2018-08-23T05:33:11.089Z,28.33
2018-08-23T05:35:40.008Z,30.03
2018-08-23T05:38:09.761Z,29.00
2018-08-23T05:40:45.964Z,28.20
2018-08-23T05:43:15.607Z,28.13
2018-08-23T05:45:49.448Z,27.90
2018-08-23T05:48:24.389Z,28.10
2018-08-23T05:50:53.291Z,26.87
2018-08-23T05:53:22.226Z,29.43
2018-08-23T05:55:52.692Z,27.93
2018-08-23T05:58:25.327Z,29.13
2018-08-23T06:00:54.412Z,27.53
2018-08-23T06:03:23.355Z,28.33
2018-08-23T06:05:52.640Z,27.30
2018-08-23T06:08:21.641Z,27.30
2018-08-23T06:10:53.434Z,26.57
2018-08-23T06:13:22.365Z,26.77
2018-08-23T06:15:57.535Z,26.67
2018-08-23T06:18:27.343Z,26.83
2018-08-23T06:20:56.284Z,27.60
2018-08-23T06:23:31.937Z,26.73
2018-08-23T06:26:00.857Z,28.57
2018-08-23T06:28:29.823Z,26.53
2018-08-23T06:30:59.884Z,27.23
2018-08-23T06:33:36.859Z,26.40
2018-08-23T06:36:06.415Z,25.47
2018-08-23T06:38:36.111Z,26.77
2018-08-23T06:41:06.442Z,26.27
2018-08-23T06:43:35.600Z,26.20
2018-08-23T06:46:05.056Z,25.30
2018-08-23T06:48:34.032Z,25.90
2018-08-23T06:51:03.929Z,23.83
2018-08-23T06:53:46.950Z,24.60
2018-08-23T06:56:16.816Z,25.53
2018-08-23T06:58:45.723Z,25.87
2018-08-23T07:01:31.245Z,24.53
2018-08-23T07:04:04.939Z,24.20
2018-08-23T07:06:35.154Z,22.53
2018-08-23T07:09:06.774Z,24.23
2018-08-23T07:11:35.766Z,23.00
2018-08-23T07:14:09.910Z,24.47
2018-08-23T07:16:38.848Z,23.07
2018-08-23T07:19:22.160Z,24.00
2018-08-23T07:21:52.116Z,24.33
2018-08-23T07:24:36.432Z,25.23
2018-08-23T07:27:07.015Z,23.13
2018-08-23T07:29:35.987Z,24.37
2018-08-23T07:32:06.683Z,25.43
2018-08-23T07:34:35.865Z,24.97
2018-08-23T07:37:15.004Z,23.70
2018-08-23T07:39:48.118Z,23.13
2018-08-23T07:42:22.623Z,27.37
2018-08-23T07:44:57.869Z,28.17
2018-08-23T07:47:27.016Z,27.50
2018-08-23T07:49:57.020Z,26.67
2018-08-23T07:52:27.223Z,30.03
2018-08-23T07:54:56.236Z,30.33
2018-08-23T07:57:25.213Z,30.57
2018-08-23T07:59:57.275Z,32.03
2018-08-23T08:02:27.679Z,28.87
2018-08-23T08:04:57.154Z,30.23
2018-08-23T08:07:28.304Z,29.60
2018-08-23T08:10:03.056Z,31.30
2018-08-23T08:12:40.480Z,32.67
2018-08-23T08:15:11.986Z,31.57
2018-08-23T08:17:40.818Z,31.13
2018-08-23T08:20:10.882Z,28.50
2018-08-23T08:22:39.924Z,31.07
2018-08-23T08:25:11.197Z,32.07
2018-08-23T08:27:40.532Z,30.03
2018-08-23T08:30:11.298Z,32.93
2018-08-23T08:32:45.017Z,31.67
2018-08-23T08:35:18.050Z,30.40
2018-08-23T08:37:48.176Z,30.80
2018-08-23T08:40:24.060Z,32.47
2018-08-23T08:42:53.128Z,32.10
2018-08-23T08:45:23.455Z,31.43
2018-08-23T08:47:52.414Z,31.17
2018-08-23T08:50:26.914Z,30.33
2018-08-23T08:52:56.022Z,27.93
2018-08-23T08:55:24.996Z,28.20
2018-08-23T08:57:53.960Z,26.80
2018-08-23T09:00:23.952Z,29.90
2018-08-23T09:02:52.929Z,27.93
2018-08-23T09:05:27.466Z,28.63
2018-08-23T09:07:56.418Z,27.10
2018-08-23T09:10:25.395Z,26.70
2018-08-23T09:12:54.323Z,27.47
2018-08-23T09:15:23.317Z,27.57
2018-08-23T09:17:52.205Z,26.03
2018-08-23T09:20:21.183Z,25.70
2018-08-23T09:22:52.866Z,26.53
2018-08-23T09:25:24.252Z,28.07
2018-08-23T09:27:53.316Z,28.50
2018-08-23T09:30:29.520Z,26.90
2018-08-23T09:33:02.630Z,28.43
2018-08-23T09:35:32.704Z,29.83
2018-08-23T09:38:09.573Z,28.40
2018-08-23T09:40:39.520Z,25.73
2018-08-23T09:43:08.652Z,26.60
2018-08-23T09:45:38.371Z,28.27
2018-08-23T09:48:07.360Z,27.87
2018-08-23T09:50:36.440Z,27.13
2018-08-23T09:53:11.129Z,26.30
2018-08-23T09:55:40.087Z,28.20
2018-08-23T09:58:42.682Z,29.60
2018-08-23T10:01:16.939Z,27.97
2018-08-23T10:03:51.144Z,26.77
2018-08-23T10:06:22.013Z,24.50
2018-08-23T10:09:02.144Z,24.57
2018-08-23T10:11:36.716Z,26.00
2018-08-23T10:14:10.664Z,24.70
2018-08-23T10:16:45.070Z,23.13
2018-08-23T10:19:19.361Z,22.33
2018-08-23T10:21:53.710Z,25.33
2018-08-23T10:24:26.438Z,23.93
2018-08-23T10:26:55.379Z,23.43
2018-08-23T10:29:24.309Z,22.00
2018-08-23T10:31:53.328Z,21.83
2018-08-23T10:34:22.352Z,21.80
2018-08-23T10:36:51.224Z,22.07
2018-08-23T10:39:20.160Z,20.70
2018-08-23T10:41:49.050Z,20.23
2018-08-23T10:44:18.102Z,20.80
2018-08-23T10:46:52.436Z,22.37
2018-08-23T10:49:21.373Z,21.53
2018-08-23T10:51:50.283Z,22.23
2018-08-23T10:54:19.276Z,21.47
2018-08-23T10:56:48.205Z,23.13
2018-08-23T10:59:17.159Z,23.03
2018-08-23T11:01:46.121Z,22.17
2018-08-23T11:04:15.040Z,23.30
2018-08-23T11:06:49.346Z,22.70
2018-08-23T11:09:23.805Z,24.17
2018-08-23T11:11:52.699Z,22.30
2018-08-23T11:14:27.020Z,23.77
2018-08-23T11:17:01.343Z,22.73
2018-08-23T11:19:35.424Z,21.53
2018-08-23T11:22:04.390Z,23.30
2018-08-23T11:24:33.286Z,22.03
2018-08-23T11:27:02.345Z,23.33
2018-08-23T11:29:31.295Z,21.83
2018-08-23T11:32:00.179Z,23.30
2018-08-23T11:34:29.128Z,21.03
2018-08-23T11:36:58.115Z,20.30
2018-08-23T11:39:27.155Z,21.67
2018-08-23T11:41:56.153Z,22.03
2018-08-23T11:44:25.034Z,19.83
2018-08-23T11:46:54.463Z,18.73
2018-08-23T11:49:23.011Z,18.17
2018-08-23T11:51:51.922Z,16.97
2018-08-23T11:54:20.860Z,15.53
2018-08-23T11:56:49.799Z,17.10
2018-08-23T11:59:18.769Z,15.97
2018-08-23T12:01:47.637Z,15.40
2018-08-23T12:04:16.599Z,13.73
2018-08-23T12:06:45.492Z,15.53
2018-08-23T12:09:14.432Z,13.97
2018-08-23T12:11:43.321Z,14.70
2018-08-23T12:14:12.244Z,12.63
2018-08-23T12:16:41.177Z,13.13
2018-08-23T12:19:10.095Z,13.10
2018-08-23T12:21:38.995Z,13.43
2018-08-23T12:24:07.916Z,12.87
2018-08-23T12:26:36.893Z,10.57
2018-08-23T12:29:09.696Z,11.10
2018-08-23T12:31:39.209Z,9.17
2018-08-23T12:34:09.274Z,9.90
2018-08-23T12:36:43.448Z,9.13
2018-08-23T12:39:17.719Z,8.47
2018-08-23T12:41:51.974Z,7.80
2018-08-23T12:44:20.867Z,8.83
2018-08-23T12:46:53.936Z,7.97
2018-08-23T12:49:22.980Z,9.60
2018-08-23T12:51:51.819Z,9.90
2018-08-23T12:54:20.723Z,9.17
2018-08-23T12:56:49.637Z,8.73
2018-08-23T12:59:18.569Z,9.13
2018-08-23T13:01:47.613Z,7.50
2018-08-23T13:04:16.461Z,8.40
2018-08-23T13:06:45.420Z,7.20
2018-08-23T13:09:14.985Z,8.23
2018-08-23T13:11:43.858Z,7.23
2018-08-23T13:14:12.794Z,6.53
2018-08-23T13:16:42.409Z,5.77
2018-08-23T13:19:12.025Z,5.50
2018-08-23T13:21:40.969Z,6.53
2018-08-23T13:24:10.914Z,5.70
2018-08-23T13:26:46.233Z,5.50
2018-08-23T13:29:15.388Z,5.20
2018-08-23T13:31:44.329Z,4.17
2018-08-23T13:34:14.412Z,4.33
2018-08-23T13:36:44.459Z,3.23
2018-08-23T13:39:14.133Z,3.80
2018-08-23T13:41:43.107Z,3.70
2018-08-23T13:44:13.049Z,3.90
2018-08-23T13:46:41.973Z,3.67
2018-08-23T13:49:11.039Z,3.47
2018-08-23T13:51:39.951Z,3.43
2018-08-23T13:54:09.017Z,3.30
2018-08-23T13:56:38.003Z,3.60
2018-08-23T13:59:07.416Z,3.67
2018-08-23T14:01:36.277Z,3.17
2018-08-23T14:04:05.200Z,4.00
2018-08-23T14:06:35.123Z,4.20
2018-08-23T14:09:05.123Z,4.13
2018-08-23T14:11:36.069Z,3.40
2018-08-23T14:14:05.027Z,3.93
2018-08-23T14:16:33.928Z,4.53
2018-08-23T14:19:02.885Z,4.33
2018-08-23T14:21:31.892Z,4.10
2018-08-23T14:24:00.899Z,3.97
2018-08-23T14:26:29.896Z,3.73
2018-08-23T14:28:59.917Z,3.67
2018-08-23T14:31:30.939Z,4.27
2018-08-23T14:34:00.166Z,4.00
2018-08-23T14:36:29.213Z,4.90
2018-08-23T14:38:58.282Z,3.47
2018-08-23T14:41:27.199Z,4.17
2018-08-23T14:43:56.077Z,3.40
2018-08-23T14:46:30.240Z,3.50
2018-08-23T14:48:59.231Z,4.07
2018-08-23T14:51:28.199Z,4.30
2018-08-23T14:53:57.095Z,4.70
2018-08-23T14:56:31.455Z,4.57
2018-08-23T14:59:00.447Z,4.60
2018-08-23T15:01:29.435Z,4.27
2018-08-23T15:03:58.289Z,5.77
2018-08-23T15:06:27.462Z,4.07
2018-08-23T15:09:01.039Z,3.67
2018-08-23T15:11:30.356Z,3.93
2018-08-23T15:13:59.360Z,3.43
2018-08-23T15:16:28.460Z,3.53
2018-08-23T15:18:57.744Z,3.57
2018-08-23T15:21:26.890Z,3.50
2018-08-23T15:23:57.189Z,3.33
2018-08-23T15:26:27.218Z,3.43
2018-08-23T15:28:58.253Z,4.27
2018-08-23T15:31:27.410Z,3.60
2018-08-23T15:33:56.624Z,3.10
2018-08-23T15:36:25.956Z,3.50
2018-08-23T15:38:55.504Z,3.30
2018-08-23T15:41:27.617Z,3.37
2018-08-23T15:44:01.493Z,3.47
2018-08-23T15:46:35.935Z,4.00
2018-08-23T15:49:05.033Z,4.17
2018-08-23T15:51:35.211Z,3.70
2018-08-23T15:54:04.407Z,3.97
2018-08-23T15:56:34.563Z,4.20
2018-08-23T15:59:05.650Z,4.80
2018-08-23T16:04:33.141Z,3.57
2018-08-23T16:07:02.073Z,7.53
2018-08-23T16:09:33.038Z,6.83
2018-08-23T16:12:02.008Z,9.23
2018-08-23T16:14:30.955Z,6.30
2018-08-23T16:17:05.295Z,9.13
2018-08-23T16:19:39.709Z,5.17
2018-08-23T16:22:08.722Z,6.47
2018-08-23T16:24:37.721Z,5.57
2018-08-23T16:27:12.316Z,4.10
2018-08-23T16:29:51.130Z,3.10
2018-08-23T16:32:26.416Z,4.37
2018-08-23T16:35:00.836Z,3.77
2018-08-23T16:37:30.794Z,3.10
2018-08-23T16:40:00.085Z,2.93
2018-08-23T16:42:29.155Z,4.00
2018-08-23T16:44:58.115Z,3.50
2018-08-23T16:47:27.133Z,3.70
2018-08-23T16:50:00.260Z,3.10
2018-08-23T16:52:29.226Z,2.97
2018-08-23T16:54:58.245Z,3.50
2018-08-23T17:00:05.333Z,3.40
2018-08-23T17:02:34.610Z,3.50
2018-08-23T17:18:49.085Z,3.00
2018-08-23T17:21:30.588Z,2.97
2018-08-23T17:24:13.775Z,2.73
2018-08-23T17:26:43.599Z,2.60
2018-08-23T17:29:12.686Z,2.83
2018-08-23T17:31:45.458Z,2.27
2018-08-23T17:34:16.509Z,2.47
2018-08-23T17:36:57.687Z,2.87
2018-08-23T17:39:37.345Z,2.50
2018-08-23T17:45:28.347Z,2.40
2018-08-23T17:47:57.310Z,2.80
2018-08-23T17:50:26.263Z,2.60
2018-08-23T17:52:55.207Z,2.60
2018-08-23T17:55:24.104Z,2.17
2018-08-23T17:57:53.216Z,2.63
2018-08-23T18:00:22.188Z,1.50
2018-08-23T18:02:51.088Z,1.30
2018-08-23T18:05:20.055Z,1.30
2018-08-23T18:07:49.020Z,1.40
2018-08-23T18:10:18.123Z,1.40
2018-08-23T18:12:47.251Z,1.37
2018-08-23T18:15:16.233Z,1.50
2018-08-23T18:17:45.197Z,1.50
2018-08-23T18:20:14.104Z,1.50
2018-08-23T18:22:43.277Z,1.40
2018-08-23T18:25:12.223Z,1.57
2018-08-23T18:27:47.899Z,1.40
2018-08-23T18:30:17.217Z,1.30
2018-08-23T18:32:46.168Z,1.10
2018-08-23T18:39:53.386Z,1.50
2018-08-23T18:42:22.358Z,2.17
2018-08-23T18:44:51.975Z,2.00
2018-08-23T18:47:27.569Z,1.90
2018-08-23T18:50:01.954Z,2.20
2018-08-23T18:52:31.025Z,2.20
2018-08-23T18:54:59.978Z,2.37
2018-08-23T18:57:29.308Z,2.20
2018-08-23T18:59:59.199Z,2.40
2018-08-23T19:02:28.076Z,2.10
2018-08-23T19:04:57.000Z,2.57
2018-08-23T19:07:45.549Z,2.23
2018-08-23T19:10:14.528Z,2.10
2018-08-23T19:12:43.485Z,2.37
2018-08-23T19:15:12.362Z,3.23
2018-08-23T19:23:46.413Z,2.10
2018-08-23T19:26:15.479Z,2.30
2018-08-23T19:28:44.363Z,2.40
2018-08-23T19:31:13.529Z,1.63
2018-08-23T19:33:42.410Z,2.10
2018-08-23T19:36:11.341Z,1.90
2018-08-23T19:38:40.327Z,1.50
2018-08-23T19:41:09.353Z,2.10
2018-08-23T19:43:38.264Z,2.10
2018-08-23T19:46:12.497Z,2.17
2018-08-23T19:48:41.980Z,2.23
2018-08-23T19:51:10.949Z,2.40
2018-08-23T19:53:40.024Z,2.77
2018-08-23T19:56:08.916Z,3.20
2018-08-23T19:58:37.934Z,3.03
2018-08-23T20:01:06.917Z,3.33
2018-08-23T20:03:35.863Z,3.40
2018-08-23T20:06:04.843Z,4.33
2018-08-23T20:08:33.852Z,3.90
2018-08-23T20:11:02.978Z,4.07
2018-08-23T20:13:37.450Z,4.37
2018-08-23T20:16:11.922Z,4.87
2018-08-23T20:18:40.983Z,4.80
2018-08-23T20:21:09.896Z,4.87
2018-08-23T20:23:38.988Z,5.37
2018-08-23T20:26:08.921Z,4.70
2018-08-23T20:28:37.909Z,5.07
2018-08-23T20:31:07.063Z,5.07
2018-08-23T20:33:36.079Z,5.20
2018-08-23T20:36:05.030Z,4.93
2018-08-23T20:38:36.073Z,4.50
2018-08-23T20:41:05.207Z,4.67
2018-08-23T20:43:34.380Z,4.53
2018-08-23T20:46:03.314Z,5.07
2018-08-23T20:48:32.248Z,5.13
2018-08-23T20:51:01.189Z,4.40
2018-08-23T20:53:30.108Z,5.67
2018-08-23T20:55:59.062Z,5.37
2018-08-23T20:58:27.984Z,5.57
2018-08-23T21:00:57.891Z,6.43
2018-08-23T21:03:26.828Z,4.73
2018-08-23T21:05:55.780Z,4.90
2018-08-23T21:08:24.711Z,4.03
2018-08-23T21:10:53.632Z,4.90
2018-08-23T21:13:22.605Z,5.33
2018-08-23T21:15:51.524Z,5.07
2018-08-23T21:18:20.431Z,4.73
2018-08-23T21:20:49.353Z,4.23
2018-08-23T21:23:18.336Z,5.07
2018-08-23T21:25:47.295Z,4.20
2018-08-23T21:28:16.212Z,4.57
2018-08-23T21:30:45.156Z,4.77
2018-08-23T21:33:14.140Z,4.03
2018-08-23T21:35:43.028Z,4.33
2018-08-23T21:38:12.008Z,4.27
2018-08-23T21:40:40.935Z,4.67
2018-08-23T21:43:09.912Z,4.60
2018-08-23T21:45:38.799Z,5.10
2018-08-23T21:48:08.082Z,5.00
2018-08-23T21:50:37.052Z,5.27
2018-08-23T21:53:06.031Z,5.07
2018-08-23T21:55:37.653Z,4.90
2018-08-23T21:58:08.205Z,4.40
2018-08-23T22:00:42.366Z,4.80
2018-08-23T22:03:12.128Z,4.57
2018-08-23T22:05:41.710Z,4.60
2018-08-23T22:08:10.956Z,4.93
2018-08-23T22:10:39.901Z,4.80
2018-08-23T22:13:08.798Z,4.70
2018-08-23T22:15:43.076Z,4.00
2018-08-23T22:18:12.004Z,4.67
2018-08-23T22:20:40.973Z,4.47
2018-08-23T22:23:09.898Z,4.93
2018-08-23T22:25:39.361Z,4.23
2018-08-23T22:28:08.684Z,4.27
2018-08-23T22:30:38.626Z,4.30
2018-08-23T22:33:08.032Z,4.63
2018-08-23T22:35:37.001Z,4.87
2018-08-23T22:38:06.378Z,4.30
2018-08-23T22:40:35.404Z,4.83
2018-08-23T22:43:04.287Z,4.60
2018-08-23T22:45:33.217Z,5.47
2018-08-23T22:48:02.095Z,5.87
2018-08-23T22:50:31.024Z,5.10
2018-08-23T22:53:00.015Z,4.53
2018-08-23T22:55:28.969Z,4.77
2018-08-23T22:57:57.876Z,5.13
2018-08-23T23:00:32.107Z,4.97
2018-08-23T23:03:01.032Z,4.90
2018-08-23T23:05:30.059Z,5.43
2018-08-23T23:08:04.147Z,5.43
2018-08-23T23:10:33.064Z,5.87
2018-08-23T23:13:01.967Z,5.73
2018-08-23T23:15:30.884Z,6.27
2018-08-23T23:17:59.784Z,5.40
2018-08-23T23:20:28.689Z,5.40
2018-08-23T23:22:57.644Z,5.60
2018-08-23T23:25:26.696Z,5.60
2018-08-23T23:27:55.601Z,5.87
2018-08-23T23:30:24.488Z,6.40
2018-08-23T23:32:53.431Z,5.53
2018-08-23T23:35:22.329Z,6.10
2018-08-23T23:37:51.230Z,5.97
2018-08-23T23:40:20.140Z,6.80
2018-08-23T23:42:49.068Z,6.03
2018-08-23T23:45:18.010Z,6.83
2018-08-23T23:47:46.930Z,6.63
2018-08-23T23:50:15.816Z,7.37
2018-08-23T23:52:44.712Z,6.67
2018-08-23T23:55:13.617Z,7.47
2018-08-23T23:57:42.552Z,7.50
